createdAt,value
2023-05-15T00:01:20.173Z,16.92
2023-05-15T00:03:48.286Z,16.45
2023-05-15T00:06:17.462Z,16.92
2023-05-15T00:08:47.010Z,15.90
2023-05-15T00:11:14.358Z,16.20
2023-05-15T00:13:44.573Z,18.35
2023-05-15T00:16:12.204Z,17.52
2023-05-15T00:18:39.829Z,16.95
2023-05-15T00:21:07.373Z,15.38
2023-05-15T00:23:36.484Z,17.85
2023-05-15T00:26:03.990Z,17.30
2023-05-15T00:28:31.359Z,19.13
2023-05-15T00:30:58.713Z,18.13
2023-05-15T00:33:26.489Z,18.77
2023-05-15T00:35:53.775Z,19.80
2023-05-15T00:38:21.229Z,19.95
2023-05-15T00:40:48.712Z,19.88
2023-05-15T00:43:16.134Z,21.80
2023-05-15T00:45:43.605Z,19.67
2023-05-15T00:48:11.174Z,18.50
2023-05-15T00:50:41.606Z,18.67
2023-05-15T00:53:09.253Z,18.42
2023-05-15T00:55:36.934Z,17.10
2023-05-15T00:58:04.386Z,16.85
2023-05-15T01:00:33.119Z,14.80
2023-05-15T01:03:01.978Z,14.70
2023-05-15T01:05:30.312Z,15.25
2023-05-15T01:08:08.844Z,14.88
2023-05-15T01:10:36.341Z,15.20
2023-05-15T01:13:04.015Z,14.48
2023-05-15T01:15:31.582Z,14.52
2023-05-15T01:17:59.134Z,13.70
2023-05-15T01:20:27.457Z,12.80
2023-05-15T01:23:09.833Z,12.80
2023-05-15T01:25:57.379Z,12.90
2023-05-15T01:28:49.096Z,13.32
2023-05-15T01:31:19.380Z,12.50
2023-05-15T01:33:47.752Z,13.13
2023-05-15T01:36:19.057Z,12.30
2023-05-15T01:38:52.101Z,11.95
2023-05-15T01:41:22.384Z,12.60
2023-05-15T01:43:55.667Z,12.30
2023-05-15T01:46:23.859Z,11.90
2023-05-15T01:48:51.421Z,12.82
2023-05-15T01:51:19.319Z,12.93
2023-05-15T01:53:46.874Z,12.88
2023-05-15T01:56:15.011Z,13.27
2023-05-15T01:58:42.675Z,12.13
2023-05-15T02:01:10.034Z,13.32
2023-05-15T02:03:37.729Z,12.38
2023-05-15T02:06:06.010Z,12.25
2023-05-15T02:08:33.562Z,12.32
2023-05-15T02:11:01.562Z,12.75
2023-05-15T02:13:29.506Z,13.35
2023-05-15T02:15:57.156Z,12.27
2023-05-15T02:18:28.542Z,12.43
2023-05-15T02:20:58.191Z,12.63
2023-05-15T02:23:25.638Z,13.57
2023-05-15T02:26:26.717Z,12.50
2023-05-15T02:29:14.211Z,13.48
2023-05-15T02:31:51.558Z,14.25
2023-05-15T02:34:42.965Z,14.60
2023-05-15T02:37:13.644Z,15.98
2023-05-15T02:39:42.870Z,16.92
2023-05-15T02:42:10.424Z,16.08
2023-05-15T02:44:38.764Z,15.60
2023-05-15T02:47:06.340Z,15.73
2023-05-15T02:49:34.375Z,15.93
2023-05-15T02:52:01.882Z,13.98
2023-05-15T02:54:29.602Z,12.25
2023-05-15T02:56:57.172Z,12.00
2023-05-15T02:59:24.733Z,10.32
2023-05-15T03:01:52.365Z,9.95
2023-05-15T03:04:20.735Z,9.13
2023-05-15T03:06:48.620Z,10.82
2023-05-15T03:09:16.684Z,10.48
2023-05-15T03:11:44.198Z,10.35
2023-05-15T03:14:11.806Z,11.02
2023-05-15T03:16:39.503Z,10.73
2023-05-15T03:19:07.058Z,10.05
2023-05-15T03:21:35.203Z,10.13
2023-05-15T03:24:02.984Z,10.20
2023-05-15T03:26:30.571Z,10.43
2023-05-15T03:28:58.123Z,10.90
2023-05-15T03:31:25.889Z,9.63
2023-05-15T03:33:53.800Z,10.48
2023-05-15T03:36:22.677Z,10.27
2023-05-15T03:38:50.357Z,11.15
2023-05-15T03:41:17.902Z,11.05
2023-05-15T03:43:45.423Z,10.90
2023-05-15T03:46:13.173Z,9.52
2023-05-15T03:48:41.942Z,8.82
2023-05-15T03:51:09.466Z,9.57
2023-05-15T03:53:37.502Z,9.77
2023-05-15T03:56:05.563Z,9.02
2023-05-15T03:58:33.148Z,9.63
2023-05-15T04:01:00.734Z,10.32
2023-05-15T04:03:28.354Z,9.20
2023-05-15T04:05:55.896Z,11.80
2023-05-15T04:08:23.478Z,11.07
2023-05-15T04:10:51.945Z,11.50
2023-05-15T04:13:19.440Z,13.30
2023-05-15T04:15:47.633Z,14.85
2023-05-15T04:18:16.440Z,11.90
2023-05-15T04:20:43.938Z,16.13
2023-05-15T04:23:11.590Z,16.10
2023-05-15T04:25:39.721Z,17.73
2023-05-15T04:28:07.510Z,18.38
2023-05-15T04:30:36.096Z,20.65
2023-05-15T04:33:04.267Z,22.58
2023-05-15T04:35:31.837Z,19.77
2023-05-15T04:37:59.549Z,15.23
2023-05-15T04:40:27.038Z,12.85
2023-05-15T04:42:54.553Z,12.80
2023-05-15T04:45:22.026Z,12.25
2023-05-15T04:47:49.649Z,12.27
2023-05-15T04:50:17.164Z,11.70
2023-05-15T04:52:45.763Z,11.52
2023-05-15T04:55:14.214Z,11.23
2023-05-15T04:57:41.784Z,10.73
2023-05-15T05:00:14.408Z,9.70
2023-05-15T05:02:43.576Z,9.02
2023-05-15T05:05:11.175Z,8.38
2023-05-15T05:07:39.594Z,9.80
2023-05-15T05:10:08.050Z,9.65
2023-05-15T05:12:36.268Z,9.77
2023-05-15T05:15:04.213Z,8.73
2023-05-15T05:17:32.655Z,8.60
2023-05-15T05:20:00.252Z,7.68
2023-05-15T05:22:27.859Z,8.45
2023-05-15T05:24:56.351Z,6.70
2023-05-15T05:27:23.880Z,6.63
2023-05-15T05:29:53.474Z,6.07
2023-05-15T05:32:21.097Z,6.60
2023-05-15T05:34:48.648Z,6.93
2023-05-15T05:37:16.270Z,6.80
2023-05-15T05:39:43.748Z,8.38
2023-05-15T05:42:11.251Z,8.27
2023-05-15T05:44:39.090Z,8.77
2023-05-15T05:47:06.730Z,8.73
2023-05-15T05:49:34.528Z,7.60
2023-05-15T05:52:07.983Z,10.25
2023-05-15T05:54:35.531Z,10.57
2023-05-15T05:57:03.115Z,10.65
2023-05-15T05:59:31.239Z,11.82
2023-05-15T06:01:58.842Z,11.05
2023-05-15T06:04:26.860Z,14.05
2023-05-15T06:06:54.812Z,12.77
2023-05-15T06:09:22.940Z,13.18
2023-05-15T06:11:50.800Z,13.80
2023-05-15T06:14:19.396Z,13.25
2023-05-15T06:16:47.146Z,14.57
2023-05-15T06:19:14.978Z,13.18
2023-05-15T06:21:42.689Z,14.45
2023-05-15T06:24:10.234Z,14.75
2023-05-15T06:26:37.764Z,15.02
2023-05-15T06:29:05.373Z,15.57
2023-05-15T06:31:33.092Z,14.13
2023-05-15T06:34:02.458Z,12.60
2023-05-15T06:36:30.521Z,12.93
2023-05-15T19:27:13.489Z,6.03
2023-05-15T19:29:42.890Z,5.60
2023-05-15T19:32:10.651Z,6.05
2023-05-15T19:34:38.183Z,5.22
2023-05-15T19:37:06.038Z,4.97
2023-05-15T19:39:33.902Z,5.40
2023-05-15T19:42:01.550Z,5.10
2023-05-15T19:44:29.068Z,5.50
2023-05-15T19:46:56.598Z,6.32
2023-05-15T19:49:24.091Z,5.70
2023-05-15T19:51:52.104Z,6.00
2023-05-15T19:54:19.591Z,5.47
2023-05-15T19:56:46.997Z,6.20
2023-05-15T19:59:14.733Z,5.78
2023-05-15T20:01:42.378Z,4.95
2023-05-15T20:04:09.937Z,4.82
2023-05-15T20:06:38.147Z,5.28
2023-05-15T20:09:06.053Z,4.60
2023-05-15T20:11:34.208Z,5.60
2023-05-15T20:14:01.973Z,5.18
2023-05-15T20:16:29.786Z,5.25
2023-05-15T20:18:57.439Z,4.70
2023-05-15T20:21:25.291Z,4.20
2023-05-15T20:23:52.767Z,5.05
2023-05-15T20:26:22.343Z,5.32
2023-05-15T20:28:49.975Z,5.35
2023-05-15T20:31:17.679Z,5.45
2023-05-15T20:33:45.231Z,4.97
2023-05-15T20:36:13.716Z,5.82
2023-05-15T20:38:41.616Z,5.25
2023-05-15T20:41:09.101Z,4.70
2023-05-15T20:43:39.058Z,4.78
2023-05-15T20:46:08.904Z,5.53
2023-05-15T20:48:36.565Z,5.40
2023-05-15T20:51:04.205Z,4.38
2023-05-15T20:53:31.724Z,5.07
2023-05-15T20:55:59.867Z,4.75
2023-05-15T20:58:27.692Z,4.45
2023-05-15T21:00:55.613Z,4.68
2023-05-15T21:03:23.399Z,4.82
2023-05-15T21:05:51.225Z,4.43
2023-05-15T21:08:19.522Z,4.25
2023-05-15T21:10:51.266Z,4.05
2023-05-15T21:13:18.860Z,4.20
2023-05-15T21:15:46.318Z,4.55
2023-05-15T21:18:13.918Z,4.25
2023-05-15T21:20:41.872Z,4.25
2023-05-15T21:23:09.410Z,4.22
2023-05-15T21:25:37.784Z,4.03
2023-05-15T21:28:05.401Z,3.92
2023-05-15T21:30:33.236Z,4.32
2023-05-15T21:33:00.899Z,3.70
2023-05-15T21:35:29.110Z,4.53
2023-05-15T21:37:56.779Z,4.07
2023-05-15T21:40:24.241Z,3.75
2023-05-15T21:42:52.653Z,3.75
2023-05-15T21:45:20.836Z,3.95
2023-05-15T21:47:48.605Z,3.72
2023-05-15T21:50:16.289Z,3.20
2023-05-15T21:52:43.838Z,3.47
2023-05-15T21:55:11.506Z,3.15
2023-05-15T21:57:39.173Z,3.72
2023-05-15T22:00:08.368Z,4.00
2023-05-15T22:02:36.200Z,3.80
2023-05-15T22:05:03.953Z,3.95
2023-05-15T22:07:31.609Z,4.60
2023-05-15T22:09:59.231Z,4.30
2023-05-15T22:12:26.807Z,4.95
2023-05-15T22:14:58.973Z,4.53
2023-05-15T22:17:29.310Z,4.93
2023-05-15T22:20:07.317Z,5.22
2023-05-15T22:22:35.623Z,4.90
2023-05-15T22:25:04.357Z,4.78
2023-05-15T22:27:33.021Z,4.75
2023-05-15T22:30:01.010Z,4.65
2023-05-15T22:32:28.694Z,4.75
2023-05-15T22:34:56.291Z,4.60
2023-05-15T22:37:23.974Z,4.25
2023-05-15T22:39:51.607Z,4.68
2023-05-15T22:42:19.385Z,4.97
2023-05-15T22:44:46.930Z,4.63
2023-05-15T22:47:14.701Z,5.00
2023-05-15T22:49:42.154Z,5.25
2023-05-15T22:52:12.145Z,4.60
2023-05-15T22:54:41.084Z,5.00
2023-05-15T22:57:09.008Z,5.38
2023-05-15T22:59:36.779Z,5.75
2023-05-15T23:02:04.401Z,6.22
2023-05-15T23:04:31.950Z,5.88
2023-05-15T23:06:59.502Z,5.80
2023-05-15T23:09:27.343Z,5.32
2023-05-15T23:11:54.894Z,6.15
2023-05-15T23:14:22.519Z,5.72
2023-05-15T23:16:50.046Z,6.57
2023-05-15T23:19:17.700Z,6.15
2023-05-15T23:21:45.538Z,6.32
2023-05-15T23:24:12.983Z,6.22
2023-05-15T23:26:40.754Z,6.47
2023-05-15T23:29:08.640Z,6.90
2023-05-15T23:31:36.335Z,7.07
2023-05-15T23:34:04.026Z,7.32
2023-05-15T23:36:31.629Z,8.55
2023-05-15T23:38:59.062Z,7.97
2023-05-15T23:41:26.794Z,7.35
2023-05-15T23:43:54.409Z,8.60
2023-05-15T23:46:22.009Z,7.85
2023-05-15T23:48:49.552Z,9.00
2023-05-15T23:51:17.282Z,8.93
2023-05-15T23:53:44.858Z,9.65
2023-05-15T23:56:12.400Z,11.00
2023-05-15T23:58:40.148Z,10.93
